Date,TemperatureHighF,TemperatureAvgF,TemperatureLowF,DewpointHighF,DewpointAvgF,DewpointLowF,HumidityHigh,HumidityAvg,HumidityLow,PressureMaxIn,PressureMinIn,WindSpeedMaxMPH,WindSpeedAvgMPH,GustSpeedMaxMPH,PrecipitationSumIn
2013-1-1,46.5,40.9,34.7,45.4,36.9,23.9,99,87,59,30.29,30.11,7,0,15,0.32
2013-1-2,42.7,36.5,33.2,42.4,35.3,31.9,99,96,88,30.29,30.06,13,5,20,0.01
2013-1-3,38.0,32.8,28.9,34.2,30.3,25.0,100,91,78,30.46,30.25,10,5,16,0.00
2013-1-4,38.7,29.5,25.0,25.0,21.7,19.6,85,73,51,30.56,30.45,15,8,24,0.00
2013-1-5,48.3,34.3,24.5,28.4,22.3,18.5,80,63,37,30.58,30.39,12,3,21,0.00
2013-1-6,44.6,37.0,33.0,37.6,32.4,28.1,93,84,73,30.39,30.22,16,7,22,0.00
2013-1-7,54.7,36.8,27.3,31.2,26.6,24.2,89,69,35,30.56,30.38,10,4,20,0.00
2013-1-8,54.8,41.1,28.5,42.9,33.7,25.4,91,76,57,30.59,30.47,6,1,11,0.00
2013-1-9,51.1,47.3,42.6,50.0,45.6,40.6,98,94,88,30.60,30.50,2,0,8,0.00
2013-1-10,65.3,53.8,47.3,54.1,50.0,45.9,99,88,66,30.61,30.39,6,1,13,0.00
2013-1-11,59.3,52.8,46.8,56.6,51.8,44.9,99,96,86,30.40,30.21,5,2,22,0.08
2013-1-12,70.7,61.5,56.5,62.1,57.8,54.8,98,88,70,30.27,30.14,5,1,13,0.00
2013-1-13,67.8,60.9,57.5,58.1,55.6,53.3,96,83,69,30.17,30.08,7,2,18,0.03
2013-1-14,58.6,51.0,41.6,57.7,50.6,41.3,100,99,96,30.30,30.09,15,2,24,2.13
2013-1-15,51.9,47.6,41.7,51.9,47.6,41.4,100,100,99,30.25,30.10,2,0,12,1.14
2013-1-16,56.0,50.5,46.7,56.0,50.4,46.6,100,100,98,30.13,30.03,7,1,11,0.30
2013-1-17,48.8,38.3,29.4,48.8,38.1,29.2,100,99,99,30.37,29.92,14,6,21,1.66
2013-1-18,44.0,31.9,24.8,31.8,26.7,24.1,99,83,52,30.69,30.38,11,4,20,0.13
2013-1-19,55.7,39.1,28.7,31.7,26.8,22.4,85,64,32,30.63,30.31,4,1,11,0.02
2013-1-20,38.6,36.8,33.9,26.9,25.5,23.4,73,64,57,30.31,30.28,2,0,6,0.00
2013-1-22,29.6,21.7,15.6,13.6,4.9,-1.3,66,49,30,30.45,30.19,18,10,28,0.00
2013-1-23,42.7,29.6,20.7,26.1,15.1,2.2,66,54,44,30.53,30.26,8,3,16,0.00
2013-1-24,40.4,30.5,21.4,31.0,16.7,5.9,77,57,36,30.54,30.20,24,11,34,0.00
2013-1-25,36.0,25.7,18.7,35.5,19.1,4.3,100,78,51,30.57,30.27,10,4,22,0.02
2013-1-26,45.5,34.0,28.3,34.6,28.0,23.7,98,80,49,30.50,30.31,14,8,25,0.00
2013-1-27,43.6,33.2,25.0,31.4,27.7,23.3,95,81,61,30.65,30.49,8,3,16,0.03
2013-1-28,63.9,47.9,34.0,50.2,39.9,29.8,89,75,54,30.58,30.36,6,1,11,0.01
2013-1-29,71.4,56.7,47.2,56.7,48.9,41.2,97,76,48,30.37,30.07,5,1,18,0.00
2013-1-30,59.8,54.9,42.3,58.7,53.5,38.2,99,95,85,30.06,29.55,14,5,26,2.56
2013-1-31,42.4,31.7,25.9,38.2,23.5,19.3,93,72,54,30.18,29.63,19,10,29,0.00
2013-2-1,38.7,23.5,14.3,29.7,14.7,8.3,100,69,52,30.55,30.09,22,10,33,0.00
2013-2-2,38.9,27.5,16.7,30.8,18.4,8.6,95,70,43,30.54,30.21,9,2,15,0.00
2013-2-3,40.7,31.6,25.1,33.8,26.3,19.9,94,81,60,30.24,30.09,16,9,28,0.04
2013-2-4,49.9,34.4,22.0,28.0,22.3,18.2,89,64,39,30.30,30.14,15,3,28,0.00
2013-2-5,55.0,44.0,37.1,41.1,31.1,22.7,74,61,47,30.14,30.05,6,1,11,0.00
2013-2-6,57.2,44.7,36.9,36.7,29.5,23.8,79,58,30,30.35,30.13,16,5,25,0.00
2013-2-7,43.2,39.8,37.5,39.0,31.1,23.4,98,74,50,30.36,29.99,5,1,8,0.32
2013-2-8,48.7,39.0,30.7,44.1,35.8,-99.9,99,90,63,30.17,27.10,21,2,26,0.02
2013-2-9,30.6,27.5,25.3,26.6,24.4,22.5,89,88,85,30.33,30.15,17,13,21,0.00
2013-2-10,44.3,39.6,37.8,44.0,38.5,34.8,99,96,86,30.24,30.09,7,2,11,0.37
2013-2-11,53.5,48.4,43.4,51.2,43.8,29.2,99,86,54,30.13,29.99,11,3,16,0.02
2013-2-12,47.9,41.0,35.1,36.0,29.1,24.5,95,64,42,30.13,29.90,13,5,19,0.16
2013-2-13,47.7,37.6,31.9,44.3,35.8,29.3,99,94,74,29.93,29.64,16,6,21,0.10
2013-2-14,52.4,38.6,29.6,34.4,28.7,25.1,92,70,44,30.07,29.91,14,6,16,0.00
2013-2-15,54.4,39.4,29.9,37.2,31.2,28.0,95,74,41,30.10,29.96,13,4,20,0.03
2013-2-16,29.8,28.5,27.7,28.4,27.0,26.2,95,94,92,30.02,29.92,10,7,11,0.00
2013-2-17,26.6,21.9,18.0,13.9,11.7,10.2,71,65,55,30.25,30.17,18,15,24,0.00
2013-2-18,40.4,33.8,26.2,24.5,19.8,12.8,66,56,51,30.41,30.14,10,3,13,0.00
2013-2-19,38.8,35.6,30.6,36.5,24.5,15.2,95,66,41,30.16,29.97,12,5,16,0.01
2013-2-20,42.2,31.4,25.5,17.2,11.9,6.4,63,46,26,30.19,30.07,15,10,20,0.00
2013-2-21,59.3,38.3,24.3,33.9,16.8,9.6,92,46,16,30.26,30.10,9,3,12,0.18
2013-2-22,41.8,36.8,32.4,39.1,35.0,30.5,98,93,83,30.24,30.08,9,3,15,0.27
2013-2-23,51.8,44.3,37.0,50.3,42.4,36.5,100,94,71,30.09,29.83,11,1,11,0.26
2013-2-24,52.4,42.5,34.6,40.6,30.9,23.9,93,66,38,30.05,29.85,13,8,19,0.00
2013-2-25,48.0,37.4,32.5,29.0,25.4,22.7,85,62,44,30.11,29.99,7,2,14,0.00
2013-2-26,41.6,35.8,30.6,40.8,34.9,28.5,99,96,85,29.99,29.54,10,3,12,0.76
2013-2-27,53.6,39.9,33.4,39.8,33.2,28.5,95,78,56,29.82,29.66,10,6,15,0.06
2013-2-28,35.2,30.9,28.1,32.7,26.5,23.4,95,84,76,29.96,29.73,14,9,19,0.00
2013-3-1,37.2,30.2,27.1,32.5,27.6,24.9,97,90,78,29.99,29.92,13,6,16,0.00
2013-3-2,37.9,28.8,23.6,30.7,26.0,20.2,96,90,71,30.00,29.89,15,8,20,0.03
2013-3-3,31.6,23.5,19.7,22.0,17.7,15.0,91,79,60,30.05,29.99,14,10,21,0.01
2013-3-4,49.6,28.3,21.4,25.0,16.5,14.0,78,65,28,30.22,30.09,13,9,18,0.00
2013-3-5,47.4,41.4,31.1,46.6,35.1,24.8,98,80,51,30.11,29.64,16,2,23,0.65
2013-3-6,27.5,25.5,23.1,24.6,23.7,21.9,96,93,87,30.24,29.83,22,16,33,0.01
2013-3-7,37.5,28.3,24.5,32.2,25.3,22.5,95,89,77,30.37,30.24,14,10,23,0.04
2013-3-8,47.8,33.4,23.7,31.7,25.4,21.4,92,74,49,30.41,30.31,11,8,15,0.00
2013-3-9,64.5,45.4,29.6,33.9,27.1,21.0,78,52,29,30.36,30.23,7,2,15,0.00
2013-3-10,63.2,52.0,44.7,35.7,32.1,27.9,57,47,35,30.24,30.08,9,2,21,0.00
2013-3-11,52.7,49.0,46.0,49.8,45.7,35.0,99,89,55,30.10,29.79,9,4,25,0.72
2013-3-12,50.5,42.2,34.4,50.0,37.9,31.6,99,85,64,30.05,29.76,16,8,24,0.39
2013-3-13,45.0,35.2,26.0,31.7,23.9,16.5,82,64,46,30.21,30.05,20,12,29,0.00
2013-3-14,46.0,30.4,20.8,22.4,16.9,14.6,78,59,36,30.35,30.20,18,10,26,0.00
2013-3-15,66.9,47.2,31.7,41.9,31.0,15.4,79,56,28,30.26,29.93,10,4,16,0.00
2013-3-16,74.3,62.3,54.4,48.8,44.4,41.0,61,53,37,29.93,29.70,11,3,19,0.00
2013-3-17,72.1,60.4,46.2,49.0,46.4,42.8,88,61,39,29.90,29.75,6,2,15,0.00
2013-3-18,46.2,40.8,36.6,43.6,39.6,35.5,99,95,88,29.97,29.81,7,2,14,0.57
2013-3-19,54.4,42.7,33.8,42.2,31.1,14.4,99,68,36,30.09,29.86,18,8,26,0.00
2013-3-20,53.5,38.3,27.1,29.1,16.6,10.1,94,43,26,30.12,29.85,16,7,23,0.00
2013-3-21,36.2,26.1,17.7,25.4,15.3,11.5,93,65,44,30.02,29.82,16,10,26,0.00
2013-3-22,47.7,31.5,20.0,22.9,15.7,10.9,73,53,32,30.11,30.01,9,3,12,0.00
2013-3-23,55.4,48.8,43.0,45.1,41.2,38.5,85,75,65,29.97,29.84,8,3,12,0.03
2013-3-24,44.0,40.0,35.5,43.5,38.7,34.7,99,95,83,29.89,29.47,8,2,22,0.91
2013-3-25,36.2,30.6,26.3,35.7,25.4,19.6,98,81,63,29.95,29.52,15,10,31,0.05
2013-3-26,36.2,28.0,24.4,31.6,25.3,22.5,100,90,77,30.26,29.95,16,12,25,0.02
2013-3-27,42.9,31.6,26.1,31.3,25.4,21.3,95,79,58,30.35,30.24,14,10,25,0.02
2013-3-28,50.5,35.9,27.1,28.7,22.7,20.5,77,60,37,30.36,30.26,14,8,20,0.00
2013-3-29,55.8,38.6,30.4,37.7,28.3,20.1,97,69,31,30.36,30.26,11,2,18,0.09
2013-3-30,60.5,46.5,36.2,45.7,39.4,35.4,99,79,50,30.27,30.04,5,0,12,0.17
2013-3-31,60.6,50.7,45.3,52.7,47.9,39.6,100,91,62,30.04,29.81,9,1,13,0.50
2013-4-1,59.0,48.6,39.7,48.6,42.5,32.5,99,81,53,30.00,29.84,12,7,23,0.01
2013-4-2,55.0,42.8,32.9,32.8,26.7,21.3,73,55,33,30.17,29.98,13,8,21,0.00
2013-4-3,57.6,43.5,31.5,30.3,22.2,16.4,56,44,28,30.26,30.15,9,4,15,0.00
2013-4-4,44.7,36.5,32.1,35.0,28.6,17.1,98,77,37,30.24,29.98,6,1,12,0.50
2013-4-5,56.9,42.6,35.2,46.3,37.7,34.7,100,85,52,30.10,29.98,13,6,21,0.00
2013-4-6,66.4,51.8,40.5,39.8,35.2,32.4,80,56,31,30.22,30.10,7,2,16,0.00
2013-4-7,69.3,56.4,46.6,46.2,40.0,33.0,65,55,42,30.16,30.03,7,-540,20,0.00
2013-4-8,74.0,62.2,50.9,54.3,48.4,43.5,76,61,47,30.10,29.98,7,-774,19,0.00
2013-4-9,81.7,66.5,54.3,58.9,53.3,49.4,85,64,44,30.15,30.02,6,-793,18,0.00
2013-4-10,85.6,69.5,59.6,58.1,54.0,-99.9,79,60,37,30.05,29.86,6,-720,19,0.00
2013-4-11,75.2,65.5,59.0,61.6,55.7,52.8,98,72,48,29.88,29.61,9,-779,20,0.88
2013-4-12,64.9,57.4,49.3,58.4,51.0,37.6,99,81,51,29.86,29.55,13,-625,24,0.10
2013-4-13,69.2,55.3,44.5,44.8,38.5,36.0,76,55,34,30.03,29.85,12,8,22,0.00
2013-4-14,66.6,57.7,47.4,48.3,41.4,36.2,85,56,39,30.05,29.92,7,3,26,0.00
2013-4-15,70.3,56.7,49.3,59.2,52.5,46.9,100,87,61,30.15,29.93,8,2,18,0.05
2013-4-16,79.1,64.2,54.3,60.0,56.0,52.5,97,77,46,30.23,30.11,6,2,18,0.00
2013-4-17,72.3,63.2,57.7,64.9,58.5,55.4,99,85,73,30.18,30.06,9,1,20,0.22
2013-4-18,72.7,64.1,58.4,60.0,57.1,55.0,93,79,56,30.06,29.86,11,3,24,0.00
2013-4-19,64.2,56.2,40.0,61.4,54.5,35.1,99,94,82,29.92,29.65,14,7,25,0.44
2013-4-20,58.0,43.7,32.3,40.3,32.8,27.6,88,67,44,30.30,29.92,17,9,27,0.00
2013-4-21,62.3,48.2,37.6,39.3,33.2,28.7,79,58,36,30.42,30.29,6,1,13,0.00
2013-4-22,65.5,49.5,39.2,44.2,37.2,31.2,87,65,39,30.37,30.17,7,2,14,0.00
2013-4-23,72.3,54.3,39.8,47.3,37.6,28.2,73,54,30,30.24,30.04,7,1,14,0.00
2013-4-24,69.3,58.1,46.2,57.3,49.4,44.3,94,74,51,30.09,29.94,13,3,21,0.03
2013-4-25,66.3,49.2,37.7,44.1,35.7,26.0,96,66,24,30.33,30.06,12,7,23,0.00
2013-4-26,67.7,53.1,41.1,45.2,34.7,28.6,79,51,34,30.40,30.25,7,2,15,0.00
2013-4-27,54.6,49.8,47.5,50.2,47.0,39.7,99,90,58,30.35,30.20,4,0,12,0.74
2013-4-28,50.5,48.2,44.6,50.2,47.4,42.6,100,97,87,30.23,29.95,5,1,14,1.13
2013-4-29,72.4,57.9,49.2,58.1,52.9,49.0,100,86,53,30.06,29.91,4,1,9,0.03
2013-4-30,74.0,60.7,51.6,58.7,54.5,51.1,99,82,52,30.10,29.93,6,1,15,0.01
2013-5-1,66.3,57.7,51.4,58.1,52.3,49.6,95,83,63,30.21,30.10,5,1,12,0.00
2013-5-2,65.8,55.1,51.3,57.2,52.1,49.7,97,90,72,30.24,30.16,6,1,12,0.00
2013-5-3,60.1,53.8,49.9,52.5,49.4,47.1,96,85,69,30.19,30.02,4,1,18,0.00
2013-5-4,53.3,48.4,44.1,48.6,45.0,39.1,98,88,80,30.03,29.91,3,1,16,0.28
2013-5-5,49.6,47.0,44.3,49.3,46.4,43.8,100,98,94,29.94,29.78,5,2,15,1.80
2013-5-6,63.8,53.8,46.7,51.9,47.4,42.5,99,81,47,29.87,29.76,7,2,16,0.01
2013-5-7,67.7,52.2,43.9,52.6,46.7,42.8,97,83,50,29.93,29.84,7,2,12,0.02
2013-5-8,65.0,55.5,49.6,57.5,52.7,48.4,98,91,71,30.03,29.90,6,2,10,0.04
2013-5-9,76.1,61.2,48.9,61.4,54.0,48.6,100,80,51,30.10,30.00,7,2,12,0.01
2013-5-10,73.0,63.2,54.8,61.8,56.1,52.0,92,78,60,30.07,29.89,5,0,13,0.03
2013-5-11,72.1,62.0,54.1,62.1,57.1,51.8,97,84,69,29.93,29.78,8,1,14,0.24
2013-5-12,59.7,52.1,46.1,51.7,43.0,32.4,99,73,47,30.07,29.85,9,6,20,0.00
2013-5-13,60.0,48.9,39.5,39.7,33.7,31.2,74,57,39,30.19,30.06,9,5,18,0.00
2013-5-14,73.3,56.1,40.8,50.7,41.5,31.6,85,60,39,30.24,30.05,3,0,9,0.00
2013-5-15,83.1,69.3,55.0,63.0,54.1,48.9,81,60,40,30.09,29.92,6,1,12,0.00
2013-5-16,75.9,67.4,62.3,60.0,54.7,50.7,71,64,53,29.99,29.91,4,0,9,0.00
2013-5-17,76.8,64.5,57.7,62.7,56.8,53.4,92,77,56,30.06,29.97,4,0,11,0.00
2013-5-18,65.7,62.5,59.4,63.1,59.8,56.0,99,91,72,30.03,29.98,3,0,11,1.23
2013-5-19,73.0,64.7,60.9,67.6,62.7,59.5,99,93,79,30.06,29.95,3,0,10,0.05
2013-5-20,81.2,68.1,59.4,70.1,63.8,59.1,100,87,58,30.07,29.96,4,0,9,0.01
2013-5-21,81.4,69.1,59.1,70.5,63.0,58.5,100,83,58,30.01,29.87,3,0,12,0.00
2013-5-22,77.1,65.6,58.5,67.7,62.1,57.4,97,89,63,29.94,29.80,3,0,9,0.46
2013-5-23,76.6,65.1,57.1,66.1,59.8,53.6,99,85,53,29.91,29.80,9,2,20,0.03
2013-5-24,63.3,56.3,50.0,53.6,47.7,38.4,96,74,50,30.20,29.88,11,7,20,0.00
2013-5-25,71.9,56.0,42.1,48.5,41.2,37.4,84,60,32,30.32,30.18,8,2,13,0.00
2013-5-26,72.4,60.5,51.5,56.5,48.3,41.7,89,65,48,30.24,30.15,6,1,13,0.00
2013-5-27,76.5,63.8,51.2,62.4,54.3,48.2,93,72,56,30.22,30.08,3,0,11,0.00
2013-5-28,78.7,69.0,62.1,65.8,59.6,56.9,87,73,53,30.15,30.06,3,0,11,0.00
2013-5-29,80.5,69.1,60.0,64.4,60.0,56.9,93,75,48,30.18,30.08,3,0,11,0.00
2013-5-30,78.6,68.4,59.9,65.7,60.8,57.6,95,78,56,30.21,30.09,2,0,10,0.00
2013-5-31,78.5,69.7,63.1,63.7,60.9,58.7,93,75,56,30.16,30.04,2,0,12,0.00
2013-6-1,78.3,70.6,63.9,65.2,62.1,59.3,92,76,53,30.06,29.94,3,1,16,0.00
2013-6-2,68.0,64.2,62.1,66.9,63.3,61.5,100,97,87,29.98,29.85,1,0,6,0.90
2013-6-3,77.4,67.3,61.9,69.0,63.2,59.5,100,88,63,29.93,29.83,7,1,12,0.00
2013-6-4,77.2,66.8,59.2,66.6,61.5,57.6,97,84,63,30.02,29.91,2,0,10,0.00
2013-6-5,76.9,67.3,62.0,68.5,63.4,60.3,100,88,70,30.04,29.88,2,0,11,0.35
2013-6-6,73.1,66.2,62.2,68.8,64.6,61.9,100,95,83,29.93,29.72,1,0,6,0.02
2013-6-7,77.6,66.6,60.3,70.9,64.8,59.4,100,94,76,29.79,29.63,6,1,11,0.89
2013-6-8,76.4,65.6,57.8,69.9,62.3,57.5,100,90,71,30.06,29.78,3,0,7,0.28
2013-6-9,76.4,66.8,61.6,70.6,64.7,60.7,100,93,78,30.10,29.97,2,0,10,1.73
2013-6-10,75.1,66.8,62.7,67.2,63.3,58.9,100,89,66,29.98,29.85,5,0,12,0.44
2013-6-11,79.6,69.1,61.3,71.4,64.1,60.7,99,85,64,29.98,29.90,5,1,11,0.07
2013-6-12,86.1,73.9,62.4,76.6,68.2,61.1,97,83,64,29.99,29.88,6,1,12,0.00
2013-6-13,83.4,70.8,63.9,71.5,65.4,62.4,98,84,58,29.87,29.65,7,1,13,0.45
2013-6-14,75.2,64.6,57.7,64.7,58.0,53.4,95,80,58,30.02,29.77,6,2,13,0.00
2013-6-15,79.7,66.5,55.1,68.5,58.9,52.6,95,78,56,30.12,30.01,2,0,7,0.00
2013-6-16,80.5,71.9,61.9,68.6,64.3,59.2,91,78,61,30.09,29.96,0,0,5,0.00
2013-6-17,78.2,69.2,64.2,71.6,66.9,63.8,100,93,75,29.98,29.88,2,0,8,0.30
2013-6-18,73.7,66.5,61.1,71.2,65.3,60.2,100,96,86,29.91,29.76,8,1,12,0.10
2013-6-19,77.1,65.7,58.4,70.3,62.8,57.8,100,91,72,30.08,29.89,1,0,8,0.31
2013-6-20,75.9,67.2,60.4,69.2,63.9,60.1,100,90,74,30.18,30.06,1,0,10,0.00
2013-6-21,79.6,68.2,61.7,68.6,62.9,60.3,99,84,61,30.22,30.12,0,0,6,0.00
2013-6-22,81.7,68.7,59.0,66.9,61.9,58.2,98,81,52,30.21,30.06,1,0,6,0.00
2013-6-23,78.9,68.3,60.2,70.3,63.8,58.8,98,86,69,30.17,30.08,1,0,8,0.00
2013-6-25,68.3,68.3,68.3,65.9,65.9,65.9,92,92,92,30.00,30.00,0,0,1,0.00
2013-6-26,81.8,70.5,63.9,74.5,68.1,63.4,100,93,72,30.01,29.86,4,0,7,0.06
2013-6-27,83.8,70.6,62.1,75.9,68.0,61.5,99,92,72,29.89,29.72,7,1,13,0.32
2013-6-28,83.4,71.1,65.2,74.2,67.4,62.9,100,89,65,29.77,29.58,6,1,15,0.04
2013-6-29,81.7,69.8,60.8,70.0,62.8,57.7,100,80,52,29.66,29.58,4,0,8,0.00
2013-6-30,80.3,68.1,60.5,67.0,61.9,57.6,99,82,55,29.76,29.64,1,0,10,0.47
2013-7-1,74.7,66.4,63.0,72.9,65.1,62.6,100,96,79,29.90,29.74,1,0,7,1.31
2013-7-2,78.3,68.5,62.8,70.0,65.9,62.5,100,92,67,30.07,29.90,1,0,7,0.10
2013-7-3,71.0,65.1,60.2,71.0,64.6,60.0,100,98,95,30.17,30.03,6,0,6,2.39
2013-7-4,72.0,64.8,60.5,71.7,64.7,60.5,100,100,94,30.18,30.11,4,0,8,1.22
2013-7-5,78.2,68.2,64.6,70.1,66.2,64.4,100,94,73,30.19,30.11,1,0,6,0.04
2013-7-6,77.5,62.5,63.9,71.7,53.0,-99.9,100,88,77,30.15,30.05,1,0,4,1.00
2013-7-7,74.6,68.7,66.3,72.3,68.1,66.2,100,98,88,30.12,30.04,4,0,7,0.75
2013-7-8,84.3,71.2,65.1,75.0,68.1,65.1,100,91,68,30.16,30.05,3,0,5,0.05
2013-7-9,85.7,72.3,65.4,74.9,68.7,65.1,100,90,62,30.11,30.00,1,0,2,0.30
2013-7-10,83.4,70.0,65.2,77.5,68.8,64.9,100,96,73,30.07,29.90,1,0,5,1.88
2013-7-11,75.4,68.8,64.9,72.4,67.8,64.9,100,97,85,29.93,29.83,2,0,5,0.03
2013-7-12,80.3,69.7,64.0,75.5,67.0,62.1,100,92,70,29.94,29.83,3,0,6,0.09
2013-7-13,75.7,66.7,60.8,70.6,64.7,60.2,100,94,81,30.06,29.93,2,0,6,0.00
2013-7-14,70.3,67.3,64.5,70.3,67.1,64.4,100,99,96,30.23,30.05,1,0,5,1.28
2013-7-15,82.7,69.8,64.2,73.5,67.4,64.2,100,93,65,30.29,30.21,1,0,2,0.01
2013-7-16,84.6,72.1,64.9,77.6,69.1,64.3,99,91,69,30.29,30.19,3,0,4,0.66
2013-7-17,82.8,71.2,66.7,78.9,70.1,66.4,100,96,80,30.25,30.13,3,0,6,0.41
2013-7-18,81.7,71.9,65.4,75.7,69.7,65.4,100,93,74,30.17,30.02,0,0,3,0.01
2013-7-19,85.6,74.0,67.2,78.0,70.7,66.9,100,90,66,30.08,29.92,1,0,3,0.00
2013-7-20,70.6,68.7,67.3,69.0,67.7,66.7,100,97,93,29.98,29.93,0,0,0,0.00
2013-7-21,83.0,71.9,66.4,77.3,69.6,65.2,100,93,74,29.96,29.89,5,0,6,0.07
2013-7-22,81.4,70.9,64.7,76.1,68.0,64.5,100,91,68,29.95,29.77,2,0,6,0.24
2013-7-23,83.6,71.1,65.2,75.7,68.0,64.5,99,91,72,29.86,29.74,5,1,7,0.06
2013-7-24,83.7,71.7,65.9,76.2,68.3,64.9,100,90,66,29.82,29.74,5,1,8,0.00
2013-7-25,83.3,70.5,63.9,72.4,65.5,61.9,100,85,59,29.98,29.80,6,0,8,0.00
2013-7-26,79.1,68.9,61.0,70.5,64.9,60.1,99,88,69,30.04,29.94,0,-150,4,0.00
2013-7-27,76.5,68.3,64.9,71.3,66.4,63.7,100,94,74,29.98,29.84,0,-592,0,0.62
2013-7-28,80.3,69.2,64.6,74.2,66.7,60.8,100,92,72,29.98,29.86,0,-999,0,0.06
2013-7-29,80.8,67.4,59.4,70.4,60.9,55.7,94,81,59,30.16,29.98,3,-755,7,0.00
2013-7-30,75.9,66.7,58.6,69.2,61.6,54.9,97,84,67,30.19,30.11,0,-999,0,0.00
2013-7-31,71.6,67.1,62.8,69.8,66.2,61.9,100,97,91,30.15,29.92,0,-815,1,0.36
2013-8-1,81.4,70.8,65.6,74.4,68.1,64.7,100,92,73,29.95,29.86,5,-714,10,0.03
2013-8-2,80.2,69.4,60.5,72.8,65.3,59.6,100,87,66,30.00,29.90,2,-745,2,0.00
2013-8-3,79.2,70.2,63.3,72.8,66.8,62.4,99,90,71,29.99,29.93,2,-704,5,0.00
2013-8-4,78.2,70.4,65.7,72.3,66.1,61.1,98,87,68,30.00,29.93,6,-514,9,0.00
2013-8-5,79.7,68.3,60.7,70.3,64.1,59.8,98,87,69,30.02,29.91,1,-647,6,0.17
2013-8-6,81.7,70.4,63.8,72.3,67.1,61.6,99,90,69,29.99,29.91,0,-533,0,0.01
2013-8-7,71.8,67.2,67.1,70.6,64.9,-99.9,100,96,94,30.00,27.31,1,-461,5,0.21
2013-8-8,78.0,69.1,65.3,74.3,68.2,65.3,100,97,85,30.02,29.96,0,0,0,0.00
2013-8-9,82.5,73.6,70.4,77.6,71.7,70.1,99,94,77,30.03,29.96,0,0,0,0.08
2013-8-10,81.3,71.1,66.0,77.0,70.0,66.0,100,97,83,30.09,30.00,0,0,0,0.26
2013-8-11,82.2,70.4,64.3,77.5,69.0,64.3,100,96,78,30.12,30.01,0,0,0,0.03
2013-8-12,82.7,70.7,65.7,77.5,69.2,65.4,100,95,76,30.06,29.93,0,0,0,0.01
2013-8-13,79.9,70.6,67.0,75.4,68.9,65.8,100,95,79,29.93,29.79,0,0,0,0.03
2013-8-14,73.8,65.4,59.7,68.7,62.4,57.5,99,90,74,30.03,29.85,0,0,0,0.00
2013-8-15,68.4,61.1,56.6,61.4,57.5,54.3,96,88,76,30.10,30.01,0,0,0,0.00
2013-8-16,71.9,62.6,55.6,63.2,58.2,54.8,98,86,67,30.12,30.04,0,0,0,0.00
2013-8-17,66.0,61.2,57.8,62.3,58.9,54.9,99,92,82,30.14,30.07,0,0,0,0.12
2013-8-18,73.5,64.5,59.9,70.4,63.7,59.9,100,97,86,30.19,30.10,0,0,0,0.14
2013-8-19,69.1,65.2,62.0,68.0,64.7,61.8,100,98,91,30.15,30.05,0,0,0,0.92
2013-8-20,75.9,67.5,63.2,71.6,66.3,63.2,100,96,84,30.16,30.07,0,0,0,0.01
2013-8-21,72.4,68.2,64.7,70.3,67.1,64.4,100,97,91,30.19,30.08,0,0,0,0.01
2013-8-22,80.9,71.7,64.7,74.1,68.3,64.5,100,90,70,30.14,29.99,0,0,0,0.00
2013-8-23,80.3,69.9,62.7,75.1,67.4,62.1,100,92,78,30.04,29.94,0,0,0,0.00
2013-8-24,75.8,67.1,61.6,65.9,62.5,57.0,100,86,61,30.25,30.04,0,0,0,0.00
2013-8-25,74.6,64.3,56.9,64.9,58.8,54.3,95,83,66,30.35,30.24,0,0,0,0.00
2013-8-26,77.0,65.9,56.2,68.6,61.7,55.5,100,87,70,30.31,30.11,0,0,0,0.00
2013-8-27,80.4,68.9,59.9,73.2,66.0,59.0,99,91,78,30.13,29.99,0,0,0,0.00
2013-8-28,80.7,71.9,64.5,75.2,68.8,64.0,99,90,75,30.02,29.91,0,0,0,0.00
2013-8-29,83.9,75.0,68.7,76.5,70.8,67.8,99,87,72,29.94,29.86,0,0,0,0.26
2013-8-30,78.9,70.9,66.0,73.1,69.1,65.7,100,94,79,29.98,29.88,0,0,0,0.00
2013-8-31,81.5,71.4,66.7,75.7,69.4,66.4,100,94,81,29.92,29.82,0,0,0,0.03
2013-9-1,81.8,70.9,65.8,73.4,68.7,65.5,100,93,71,29.87,29.76,0,0,0,0.29
2013-9-2,80.4,70.2,64.0,75.4,68.1,64.0,100,94,78,29.89,29.79,0,0,0,0.00
2013-9-3,79.3,69.1,60.4,72.5,65.8,60.0,100,90,71,29.96,29.80,0,0,0,0.28
2013-9-4,79.9,68.2,59.0,70.5,63.9,58.2,100,87,64,30.08,29.96,0,0,0,0.00
2013-9-5,77.6,67.9,60.7,70.2,63.1,58.2,98,85,70,30.12,30.05,0,0,0,0.00
2013-9-6,77.9,67.1,58.0,65.7,60.9,56.6,98,82,59,30.16,30.04,0,0,0,0.00
2013-9-7,78.0,66.4,58.4,69.2,62.5,57.8,100,88,67,30.09,29.97,0,0,0,0.00
2013-9-8,77.8,68.2,61.1,72.3,65.2,60.2,99,90,75,29.99,29.92,0,0,0,0.00
2013-9-9,79.5,69.5,63.3,70.1,66.1,62.7,100,90,69,30.09,29.99,0,0,0,0.00
2013-9-10,81.8,71.0,61.9,70.3,65.8,60.9,99,85,62,30.21,30.09,0,0,0,0.00
2013-9-11,80.6,70.2,63.4,73.6,67.5,62.8,100,92,73,30.19,30.05,0,0,0,0.26
2013-9-12,77.7,68.5,62.2,74.1,67.1,61.6,100,96,83,30.07,29.84,0,0,0,0.51
2013-9-13,73.7,64.2,55.7,66.4,59.8,51.3,100,87,64,29.90,29.80,0,0,0,0.03
2013-9-14,70.4,58.4,49.6,59.2,53.1,48.6,98,84,58,30.09,29.89,0,0,0,0.00
2013-9-15,72.5,63.7,54.3,64.8,58.6,52.9,98,84,69,30.18,30.08,0,0,0,0.00
2013-9-16,76.4,64.2,56.3,66.9,60.4,55.7,100,88,65,30.14,30.06,0,0,0,0.00
2013-9-17,67.3,60.7,56.7,60.2,56.2,53.3,94,85,70,30.24,30.13,0,0,0,0.00
2013-9-18,62.8,59.1,53.5,59.3,56.0,51.5,98,90,82,30.24,30.15,0,0,0,0.01
2013-9-19,75.4,65.3,58.9,67.7,62.7,58.6,100,92,73,30.17,30.05,0,0,0,0.00
2013-9-20,77.8,67.4,59.1,68.5,63.6,58.8,100,89,64,30.06,29.88,0,0,0,0.01
2013-9-21,66.4,62.3,59.0,64.3,61.4,58.7,100,97,89,29.88,29.67,0,0,0,1.10
2013-9-22,68.1,58.4,52.3,61.9,55.8,52.3,100,92,73,29.91,29.73,0,0,0,0.13
2013-9-23,70.4,59.7,50.8,61.3,55.9,50.3,100,88,65,30.02,29.91,0,0,0,0.00
2013-9-24,72.8,61.5,52.4,63.5,58.2,51.6,100,89,67,30.04,29.89,0,0,0,0.00
2013-9-25,60.9,59.1,56.5,60.7,58.7,56.5,100,99,95,29.90,29.81,0,0,0,0.75
2013-9-26,68.6,60.5,56.1,64.3,59.1,56.1,100,95,80,30.02,29.86,0,0,0,0.00
2013-9-27,71.1,60.0,52.1,62.6,56.8,51.8,100,90,68,30.15,30.02,0,0,0,0.00
2013-9-28,66.3,58.7,52.6,60.2,55.4,51.6,98,89,76,30.22,30.11,0,0,0,0.00
2013-9-29,67.9,57.7,51.0,60.4,54.0,48.8,96,88,70,30.15,30.01,0,0,0,0.00
2013-9-30,68.8,60.0,54.4,61.7,56.4,53.1,98,88,71,30.07,29.97,0,0,0,0.00
2013-10-1,72.0,61.2,53.5,63.9,57.7,52.9,100,89,67,30.14,30.04,0,0,0,0.00
2013-10-2,74.1,62.3,54.9,64.3,58.9,54.4,100,89,67,30.17,30.06,0,0,0,0.00
2013-10-3,74.8,63.9,57.7,65.5,60.2,57.1,99,89,67,30.12,30.03,0,0,0,0.00
2013-10-4,76.5,66.1,58.6,67.3,61.9,57.6,99,87,65,30.14,30.05,0,0,0,0.00
2013-10-5,78.4,66.4,56.9,67.1,62.3,56.3,100,88,61,30.12,29.99,0,0,0,0.00
2013-10-6,75.3,67.2,61.3,64.7,62.1,59.5,96,84,67,30.02,29.83,0,0,0,0.00
2013-10-7,65.4,56.7,50.6,62.7,55.2,48.9,100,95,82,30.02,29.75,0,0,0,1.31
2013-10-8,65.2,52.4,44.9,54.3,48.4,44.1,99,87,65,30.20,30.02,0,0,0,0.00
2013-10-9,67.9,55.4,46.5,58.8,50.3,43.5,97,84,69,30.23,30.10,0,0,0,0.00
2013-10-10,66.2,56.0,46.7,56.5,51.4,45.6,97,85,65,30.12,30.02,0,0,0,0.00
2013-10-11,69.4,59.1,51.5,58.5,53.9,49.5,94,84,65,30.05,29.96,0,0,0,0.00
2013-10-12,68.2,60.5,54.9,61.5,56.2,52.6,96,86,76,30.07,29.97,0,0,0,0.00
2013-10-13,69.8,63.2,58.3,64.4,60.6,57.5,98,91,81,30.17,30.07,0,0,0,0.11
2013-10-14,66.3,60.0,55.9,63.4,58.8,54.8,100,96,84,30.20,30.10,0,0,0,0.03
2013-10-15,65.5,57.5,53.2,59.5,55.5,52.6,98,93,79,30.16,30.03,0,0,0,0.00
2013-10-16,65.0,58.0,51.5,59.6,55.0,50.3,98,90,77,30.05,29.94,0,0,0,0.01
2013-10-17,69.8,59.8,51.8,65.0,58.6,50.2,100,96,83,29.95,29.79,0,0,0,0.01
2013-10-18,64.9,53.6,45.6,54.8,49.8,44.3,97,88,65,30.02,29.91,0,0,0,0.01
2013-10-19,58.2,53.7,48.4,55.8,51.3,45.6,100,92,72,29.95,29.83,0,0,0,0.00
2013-10-20,61.8,48.5,38.9,45.6,40.9,31.5,97,78,39,30.08,29.94,0,0,0,0.00
2013-10-21,64.6,51.8,40.9,52.4,46.9,39.3,98,84,59,30.13,29.99,0,0,0,0.00
2013-10-22,62.6,54.6,50.5,51.9,49.6,47.4,96,84,64,30.01,29.79,0,0,0,0.00
2013-10-23,50.6,44.4,34.4,47.9,38.2,28.8,94,79,65,30.05,29.72,0,0,0,0.01
2013-10-24,47.4,39.1,32.8,38.5,33.4,28.0,91,80,67,30.21,30.04,0,0,0,0.00
2013-10-25,41.8,33.8,27.6,35.9,28.4,24.5,92,81,62,30.40,30.21,0,0,0,0.00
2013-10-26,55.9,39.3,26.3,37.4,30.3,24.4,95,73,42,30.39,30.12,0,0,0,0.00
2013-10-27,61.5,51.8,45.5,49.8,44.0,36.3,91,75,64,30.14,30.06,0,0,0,0.00
2013-10-28,57.4,52.5,49.0,55.8,51.0,47.4,100,95,87,30.25,30.10,0,0,0,0.05
2013-10-29,67.2,56.2,48.9,53.9,50.5,48.2,99,83,53,30.33,30.22,0,0,0,0.00
2013-10-30,69.6,61.1,54.4,58.3,54.3,50.7,89,79,63,30.25,30.12,0,0,0,0.00
2013-10-31,61.9,59.5,57.3,59.4,55.3,51.8,96,86,76,30.13,29.73,0,0,0,0.00
2013-11-1,71.3,61.5,53.8,59.4,54.4,46.1,98,79,50,29.75,29.60,0,0,0,0.05
2013-11-2,55.9,49.8,42.5,45.9,41.4,37.0,82,73,57,30.01,29.72,0,0,0,0.00
2013-11-3,56.1,44.0,37.9,39.9,37.0,33.1,95,78,51,30.36,30.00,0,0,0,0.00
2013-11-4,56.8,43.1,34.7,34.7,31.9,30.8,92,66,42,30.49,30.35,0,0,0,0.00
2013-11-5,60.0,45.1,34.9,40.3,32.2,27.2,81,63,30,30.53,30.40,0,0,0,0.00
2013-11-6,67.0,53.3,45.2,52.7,48.5,40.8,99,85,59,30.42,30.10,0,0,0,0.00
2013-11-7,55.1,47.8,36.1,52.8,44.0,30.5,99,87,75,30.16,29.98,0,0,0,0.07
2013-11-8,51.4,39.0,32.7,30.5,26.6,22.8,82,63,40,30.34,30.17,0,0,0,0.00
2013-11-9,43.9,36.9,34.6,26.9,23.7,22.5,63,59,50,30.36,30.32,0,0,0,0.00
2013-11-10,59.7,47.0,42.1,40.8,31.2,25.3,65,54,41,30.28,30.20,0,0,0,0.00
2013-11-11,63.6,47.2,35.9,34.4,28.4,23.5,71,50,27,30.32,30.15,0,0,0,0.00
2013-11-12,49.4,38.7,21.9,37.9,27.3,13.3,88,65,44,30.46,30.08,0,0,0,0.00
2013-11-13,40.1,27.0,18.3,22.4,17.4,13.7,85,69,46,30.62,30.47,0,0,0,0.00
2013-11-14,59.1,46.2,27.1,23.4,19.8,16.4,64,37,21,30.52,30.33,0,0,0,0.00
2013-11-15,48.0,43.0,35.2,47.7,33.9,14.8,99,73,37,30.34,30.16,0,0,0,0.07
2013-11-16,61.3,51.6,46.8,54.9,49.9,46.4,100,94,77,30.25,30.15,0,0,0,0.00
2013-11-17,59.0,55.8,53.2,58.0,54.6,51.5,100,96,88,30.17,29.85,0,0,0,0.32
2013-11-18,62.2,52.7,41.7,59.7,42.8,30.8,100,70,47,30.03,29.81,0,0,0,0.02
2013-11-19,52.7,40.4,32.7,30.7,27.5,25.3,76,61,37,30.23,30.02,0,0,0,0.00
2013-11-20,50.8,39.3,31.3,30.4,27.0,25.0,78,62,40,30.43,30.21,0,0,0,0.00
2013-11-21,50.6,44.2,37.6,50.6,40.2,29.4,100,86,71,30.47,30.37,0,0,0,0.02
2013-11-22,63.8,55.3,49.3,58.5,53.8,49.0,100,95,79,30.39,30.11,0,0,0,0.00
2013-11-23,53.0,42.1,28.2,52.5,39.6,20.6,99,91,73,30.24,30.08,0,0,0,0.01
2013-11-24,32.2,23.5,17.3,20.8,12.5,6.8,78,63,44,30.55,30.24,0,0,0,0.00
2013-11-25,37.4,29.0,20.7,27.2,11.4,4.9,88,49,31,30.56,30.32,0,0,0,0.00
2013-11-26,41.6,37.3,29.9,41.6,36.9,26.9,100,98,87,30.32,29.68,0,0,0,2.01
2013-11-27,38.8,26.1,19.7,38.6,24.9,16.2,100,95,85,30.25,29.65,0,0,0,0.06
2013-11-28,44.5,27.6,15.9,29.4,20.3,13.7,92,76,47,30.52,30.25,0,0,0,0.08
2013-11-29,51.9,36.8,28.7,33.3,25.0,20.1,78,63,45,30.60,30.49,0,0,0,0.02
2013-11-30,49.3,33.9,27.1,29.4,24.0,21.5,80,68,44,30.60,30.42,0,0,0,0.00
2013-12-3,49.5,49.3,49.0,47.8,47.5,47.3,94,94,93,29.92,29.90,0,0,0,0.00
2013-12-4,66.0,54.6,49.0,56.4,51.7,47.7,99,91,70,30.02,29.91,0,0,0,0.00
2013-12-5,70.6,61.1,55.8,62.3,58.6,54.1,100,92,75,30.04,29.92,0,0,0,0.28
2013-12-6,67.0,60.8,48.2,63.7,59.3,47.7,100,95,84,30.00,29.86,0,0,0,0.26
2013-12-7,48.6,39.2,35.6,48.1,38.4,35.1,99,97,91,30.37,29.95,0,0,0,0.01
2013-12-8,39.6,35.8,34.4,38.6,35.1,33.9,100,98,93,30.35,30.18,0,0,0,0.15
2013-12-9,49.1,45.1,36.2,49.1,44.9,35.9,100,99,96,30.21,30.02,0,0,0,0.19
2013-12-10,44.0,35.5,26.4,43.4,33.4,22.2,100,92,79,30.34,29.90,0,0,0,0.32
2013-12-11,50.0,33.3,21.0,29.2,21.7,17.3,91,66,38,30.50,30.33,0,0,0,0.00
2013-12-12,36.5,27.8,22.6,21.2,16.3,9.5,87,64,37,30.46,30.35,0,0,0,0.00
2013-12-13,32.7,23.8,20.9,18.7,13.0,9.8,74,63,53,30.44,30.39,0,0,0,0.00
2013-12-14,42.4,38.6,34.9,42.1,31.7,20.3,99,78,46,30.28,29.79,0,0,0,0.49
2013-12-15,40.9,31.3,26.4,40.9,30.2,24.9,100,96,89,30.16,29.77,0,0,0,0.04
2013-12-16,53.7,36.8,23.7,37.3,27.9,22.7,97,73,41,30.26,30.15,0,0,0,0.00
2013-12-17,57.2,43.2,34.4,38.7,31.8,22.7,79,65,45,30.17,29.94,0,0,0,0.00
2013-12-18,46.7,33.5,24.9,23.2,16.9,8.6,83,54,27,30.34,30.09,0,0,0,0.00
2013-12-19,60.6,44.3,31.4,32.0,23.0,10.8,59,43,33,30.35,30.19,0,0,0,0.00
2013-12-20,65.0,51.8,42.3,47.1,33.8,23.4,84,52,36,30.19,30.08,0,0,0,0.00
2013-12-21,60.9,56.8,51.5,60.5,55.2,46.8,100,94,84,30.10,29.90,0,0,0,0.07
2013-12-22,62.0,56.7,53.5,61.0,56.2,52.8,100,98,87,30.03,29.86,0,0,0,2.29
2013-12-23,55.3,42.8,30.6,55.3,42.2,30.1,100,97,93,30.22,29.96,0,0,0,0.23
2013-12-24,31.0,26.0,19.1,30.0,22.3,15.2,98,86,73,30.47,30.22,0,0,0,0.00
2013-12-25,41.2,26.7,17.9,22.4,16.1,13.7,90,67,40,30.54,30.38,0,0,0,0.00
2013-12-26,46.4,32.8,23.7,27.8,21.9,14.2,78,65,46,30.41,30.31,0,0,0,0.00
2013-12-27,52.1,36.0,27.0,30.6,24.9,22.5,88,66,34,30.50,30.38,0,0,0,0.00
2013-12-28,46.8,36.5,29.9,41.4,26.4,21.8,92,67,42,30.44,30.30,0,0,0,0.08
2013-12-29,48.2,40.3,35.6,45.6,38.8,34.7,100,95,85,30.02,29.83,0,0,0,0.21
2013-12-30,40.6,36.2,30.7,38.4,34.1,29.4,96,92,85,30.18,30.00,0,0,0,0.00
2013-12-31,37.5,31.0,27.3,29.3,23.0,17.9,95,73,55,30.42,30.16,0,0,0,0.00
2014-1-1,45.4,35.0,25.6,29.5,24.6,17.2,82,66,49,30.41,30.14,0,0,0,0.00
2014-1-2,47.8,34.6,14.8,46.9,31.3,12.9,99,88,74,30.14,29.68,0,0,0,0.05